Ana Sayfa
METAR-TAF:

METAR-TAF

Havaalanları :

Saint-Pierre, Réunion

Enlem: 21-20S, Boylam: 055-29E, yükseklik: 52 m

Güncel hava durumu gözlemi

Rapor saat 23:30 UTC de 29 dakika önce yapıldı.
Rüzgar kuzey/kuzeydoğudan 3 kt
Sıcaklık 25°C
Nem 100%
Basınç 1006 hPa
Görüş mesafesi 10 km veya daha fazla
hafif yağmur

METAR: FMEP 232330Z AUTO 02003KT 9999 -RA BKN010/// BKN020/// OVC030/// ///CB 25/25 Q1006

Saat: 03:59 (23:59 UTC)

Tahmin

Rapor saat 11:00 UTC de 12 saat ve 59 dakika önce yapıldı.
Ayın 23'si saat 12 UTC'den ayın 23'si saat 21 UTC'ye kadar geçerli Tahmin
Rüzgar güneybatıdan 10 kt
Görüş mesafesi 10 km veya daha fazla
2000 ft yükseklikte az bulutlu
5000 ft yükseklikte parçalı çok bulutlu
Dönüşüyor
ayın 23'si saat 17 UTC'den ayın 23'si saat 19 UTC'ye kadar
Rüzgar değişken yönden 2 kt

TAF: FMEP 231100Z 2312/2321 23010KT 9999 FEW020 BKN050 BECMG 2317/2319 VRB02KT

4.000'den fazla havaalanı için hava durumu gözlemleri ve tahminleri (METAR ve TAF raporları).

Kullanılabilir istasyonlar harita üzerinde sarı ve kırmızı noktalarla gösterilir.

İstasyonun adını görmek için fareyi noktanın üzerinde gezdirin.

Sonrasında hava gözlem ve tahminlerini görmek için tıklayın.

Haritayı değiştirmek için: yaklaştırmak için siyah artı işaretli yeşil düğmeye ve uzaklaştırmak için de eksi işaretli düğmeye hızla tıklayın; bitişik haritalar için yeşil okları kullanın.


METAR-TAF: